Key West, FL (33041)

2:59 PM EST on February 06, 2016 (GMT -0500)
The Meadows | | Change Station
CLOSE
Current Station
Personal Weather Station
Location: Key West, FL
Elevation: 10 ft
Nearby Weather Stations

Elev 10 ft 24.56 °N, 81.79 °W | Updated 8 seconds ago

Rain
Rain
65.7 °F
Feels Like 65.7 °F
N
0.9
Wind Variable Wind from North
Gusts 2.0 mph

Today
High -- | Low -- °F
--% Chance of Precip.
Yesterday
High -- | Low -- °F
Precip. -- in
Pressure 30.06 in
Visibility 1.5 miles
Clouds Scattered Clouds 400 ft
Mostly Cloudy 1200 ft
Overcast 1800 ft
Dew Point 64 °F
Humidity 96%
Rainfall 0.68 in
Snow Depth Not available.
7:06 AM 6:15 PM
Waning Crescent, 4% visible
METAR KEYW 061953Z 33009KT 1 1/2SM +RA BR SCT004 BKN012 OVC018 18/18 A3006 RMK AO2 SLP177 P0056 T01830183
Pressure 30.06 in
Visibility 1.5 miles
Clouds Scattered Clouds 400 ft
Mostly Cloudy 1200 ft
Overcast 1800 ft
Dew Point 64 °F
Humidity 96%
Rainfall 0.68 in
Snow Depth Not available.
7:06 AM 6:15 PM
Waning Crescent, 4% visible
METAR KEYW 061953Z 33009KT 1 1/2SM +RA BR SCT004 BKN012 OVC018 18/18 A3006 RMK AO2 SLP177 P0056 T01830183

10-Day Weather Forecast

Almanac

Astronomy

Feb. 06, 2016 Rise Set
Actual Time
Civil Twilight
Nautical Twilight
Astronomical Twilight
Moon
Length of Visible Light
Length of Day
Tomorrow will be .
, % of the Moon is Illuminated

Today's Extremes

State Highs State Lows

Community

WunderPhotos

Upload Photos

1,891,037 photos uploaded!

WunderBlog® & News

Nearby

Air Quality

  Air Quality AQ Index Pollutant
Not available.

Snow Depth

Station Depth Elevation

Earthquake Activity

City Distance Mag. Time & Date
Minimum magnitude displayed is 2.5.

Coastal Water Temperatures

Place Temperature

Stations

Nearby Weather Stations

Station Location Temp. Windchill Dew Point Humidity Wind Precip. Elev Updated Type
                   

Watches & Warnings

There are currently no watches in effect.